Chatham, MA (02633)

6:43 AM EST on December 25, 2014 (GMT -0500)
Chatham Wind and Time | Change Station
CLOSE
Current Station
Personal Weather Station
Location: West Chatham, MA
Elevation: 50 ft
Nearby Weather Stations
Active Advisory: Wind Advisory Active Notice: Record Report

Elev 50 ft 41.68 °N, 69.98 °W | Updated 3 minutes ago

Rain
Rain
58.9 °F
Feels Like 58.9 °F
N
12.0
Wind Variable Wind from WSW
Gusts 12.0 mph

Today
High -- | Low -- °F
--% Chance of Precip.
Yesterday
High -- | Low -- °F
Precip. -- in
7:05 AM 4:14 PM
Waxing Crescent, 15% visible
Pressure 29.58 in
Visibility 1.5 miles
Clouds Overcast 200 ft
Dew Point 59 °F
Humidity 100%
Rainfall 0.25 in
Snow Depth Not available.
UV 16.0 out of 12
Pollen .10 out of 12
Air Quality Not available.
Flu Activity Not available.
METAR KCQX 251052Z AUTO 22010G18KT 1 1/2SM +RA BR OVC002 12/12 A2958 RMK AO2 SLP017 P0022 T01220122

More Conditions Fewer Conditions

Pressure 29.58 in
Visibility 1.5 miles
Clouds Overcast 200 ft
Dew Point 59 °F
Humidity 100%
Rainfall 0.25 in
Snow Depth Not available.
UV 16.0 out of 12
Pollen .10 out of 12
Air Quality Not available.
Flu Activity Not available.
METAR KCQX 251052Z AUTO 22010G18KT 1 1/2SM +RA BR OVC002 12/12 A2958 RMK AO2 SLP017 P0022 T01220122

More Conditions Fewer Conditions

10-Day Weather Forecast

Almanac

Astronomy

Dec. 25, 2014 Rise Set
Actual Time
Civil Twilight
Nautical Twilight
Astronomical Twilight
Moon
Length of Visible Light
Length of Day
Tomorrow will be .
, % of the Moon is Illuminated

Today's Extremes

State Highs State Lows

Community

WunderPhotos

Upload Photos

1,780,264 photos uploaded!

WunderBlogs® & News

Nearby

Air Quality

  Air Quality AQ Index Pollutant
Not available.

Snow Depth

Station Depth Elevation

Earthquake Activity

City Distance Mag. Time & Date
Minimum magnitude displayed is 2.5.

Coastal Water Temperatures

Place Temperature

Nearby Weather Stations